sensor_id;sensor_type;location;lat;lon;timestamp;P1;durP1;ratioP1;P2;durP2;ratioP2
12437;SDS011;6283;51.330;12.374;2023-04-03T00:00:42;1.93;;;1.30;;
12437;SDS011;6283;51.330;12.374;2023-04-03T00:03:07;1.93;;;1.20;;
12437;SDS011;6283;51.330;12.374;2023-04-03T00:05:33;2.73;;;1.50;;
12437;SDS011;6283;51.330;12.374;2023-04-03T00:07:59;2.93;;;1.40;;
12437;SDS011;6283;51.330;12.374;2023-04-03T00:10:26;3.40;;;1.23;;
12437;SDS011;6283;51.330;12.374;2023-04-03T00:12:53;3.97;;;1.47;;
12437;SDS011;6283;51.330;12.374;2023-04-03T00:15:19;4.63;;;1.50;;
12437;SDS011;6283;51.330;12.374;2023-04-03T00:17:45;4.53;;;1.60;;
12437;SDS011;6283;51.330;12.374;2023-04-03T00:20:10;3.53;;;1.57;;
12437;SDS011;6283;51.330;12.374;2023-04-03T00:22:36;3.77;;;1.37;;
12437;SDS011;6283;51.330;12.374;2023-04-03T00:25:02;3.63;;;1.30;;
12437;SDS011;6283;51.330;12.374;2023-04-03T00:27:28;2.27;;;1.40;;
12437;SDS011;6283;51.330;12.374;2023-04-03T00:29:54;2.57;;;1.40;;
12437;SDS011;6283;51.330;12.374;2023-04-03T00:32:20;3.73;;;1.43;;
12437;SDS011;6283;51.330;12.374;2023-04-03T00:34:45;4.17;;;1.10;;
12437;SDS011;6283;51.330;12.374;2023-04-03T00:37:11;3.73;;;1.33;;
12437;SDS011;6283;51.330;12.374;2023-04-03T00:39:36;3.63;;;1.50;;
12437;SDS011;6283;51.330;12.374;2023-04-03T00:42:02;5.23;;;1.87;;
12437;SDS011;6283;51.330;12.374;2023-04-03T00:46:53;4.77;;;1.50;;
12437;SDS011;6283;51.330;12.374;2023-04-03T00:49:19;2.50;;;1.43;;
12437;SDS011;6283;51.330;12.374;2023-04-03T00:51:45;2.50;;;1.50;;
12437;SDS011;6283;51.330;12.374;2023-04-03T00:54:11;2.40;;;1.30;;
12437;SDS011;6283;51.330;12.374;2023-04-03T00:56:37;2.03;;;1.30;;
12437;SDS011;6283;51.330;12.374;2023-04-03T00:59:04;1.93;;;1.40;;
12437;SDS011;6283;51.330;12.374;2023-04-03T01:01:35;1.10;;;1.00;;
12437;SDS011;6283;51.330;12.374;2023-04-03T01:04:02;3.47;;;1.30;;
12437;SDS011;6283;51.330;12.374;2023-04-03T01:06:29;1.67;;;0.93;;
12437;SDS011;6283;51.330;12.374;2023-04-03T01:08:58;4.37;;;1.07;;
12437;SDS011;6283;51.330;12.374;2023-04-03T01:11:25;2.10;;;1.10;;
12437;SDS011;6283;51.330;12.374;2023-04-03T01:13:51;2.37;;;1.00;;
12437;SDS011;6283;51.330;12.374;2023-04-03T01:16:18;3.07;;;1.00;;
12437;SDS011;6283;51.330;12.374;2023-04-03T01:18:44;1.23;;;0.93;;
12437;SDS011;6283;51.330;12.374;2023-04-03T01:21:28;2.53;;;1.20;;
12437;SDS011;6283;51.330;12.374;2023-04-03T01:24:08;1.77;;;0.97;;
12437;SDS011;6283;51.330;12.374;2023-04-03T01:26:36;5.27;;;1.27;;
12437;SDS011;6283;51.330;12.374;2023-04-03T01:29:02;2.87;;;1.27;;
12437;SDS011;6283;51.330;12.374;2023-04-03T01:32:11;4.20;;;1.10;;
12437;SDS011;6283;51.330;12.374;2023-04-03T01:34:18;1.30;;;0.90;;
12437;SDS011;6283;51.330;12.374;2023-04-03T01:36:45;4.03;;;1.23;;
12437;SDS011;6283;51.330;12.374;2023-04-03T01:39:11;3.10;;;1.30;;
12437;SDS011;6283;51.330;12.374;2023-04-03T01:41:37;1.97;;;0.87;;
12437;SDS011;6283;51.330;12.374;2023-04-03T01:44:02;2.50;;;1.30;;
12437;SDS011;6283;51.330;12.374;2023-04-03T01:46:28;1.67;;;1.10;;
12437;SDS011;6283;51.330;12.374;2023-04-03T01:48:54;5.53;;;1.37;;
12437;SDS011;6283;51.330;12.374;2023-04-03T01:51:20;4.37;;;1.40;;
12437;SDS011;6283;51.330;12.374;2023-04-03T01:53:46;3.47;;;1.10;;
12437;SDS011;6283;51.330;12.374;2023-04-03T01:56:11;2.17;;;1.07;;
12437;SDS011;6283;51.330;12.374;2023-04-03T01:58:37;1.80;;;0.90;;
12437;SDS011;6283;51.330;12.374;2023-04-03T02:01:03;2.20;;;1.20;;
12437;SDS011;6283;51.330;12.374;2023-04-03T02:03:29;3.83;;;1.00;;
12437;SDS011;6283;51.330;12.374;2023-04-03T02:05:55;2.60;;;1.10;;
12437;SDS011;6283;51.330;12.374;2023-04-03T02:08:21;1.23;;;0.97;;
12437;SDS011;6283;51.330;12.374;2023-04-03T02:10:47;1.73;;;1.03;;
12437;SDS011;6283;51.330;12.374;2023-04-03T02:13:14;2.30;;;0.90;;
12437;SDS011;6283;51.330;12.374;2023-04-03T02:15:40;1.30;;;1.20;;
12437;SDS011;6283;51.330;12.374;2023-04-03T02:18:06;4.10;;;1.20;;
12437;SDS011;6283;51.330;12.374;2023-04-03T02:20:32;2.73;;;1.00;;
12437;SDS011;6283;51.330;12.374;2023-04-03T02:22:58;4.00;;;1.40;;
12437;SDS011;6283;51.330;12.374;2023-04-03T02:25:24;2.57;;;1.20;;
12437;SDS011;6283;51.330;12.374;2023-04-03T02:27:51;1.47;;;1.00;;
12437;SDS011;6283;51.330;12.374;2023-04-03T02:30:16;2.63;;;1.00;;
12437;SDS011;6283;51.330;12.374;2023-04-03T02:32:42;2.60;;;1.23;;
12437;SDS011;6283;51.330;12.374;2023-04-03T02:35:08;1.97;;;1.23;;
12437;SDS011;6283;51.330;12.374;2023-04-03T02:37:34;1.13;;;0.90;;
12437;SDS011;6283;51.330;12.374;2023-04-03T02:40:00;2.30;;;0.80;;
12437;SDS011;6283;51.330;12.374;2023-04-03T02:42:26;6.13;;;1.13;;
12437;SDS011;6283;51.330;12.374;2023-04-03T02:44:51;3.60;;;1.30;;
12437;SDS011;6283;51.330;12.374;2023-04-03T02:47:17;6.03;;;1.30;;
12437;SDS011;6283;51.330;12.374;2023-04-03T02:49:43;3.20;;;1.17;;
12437;SDS011;6283;51.330;12.374;2023-04-03T02:52:10;3.93;;;1.20;;
12437;SDS011;6283;51.330;12.374;2023-04-03T02:54:35;1.77;;;1.10;;
12437;SDS011;6283;51.330;12.374;2023-04-03T02:57:01;2.10;;;1.00;;
12437;SDS011;6283;51.330;12.374;2023-04-03T02:59:27;5.10;;;1.37;;
12437;SDS011;6283;51.330;12.374;2023-04-03T03:01:52;2.80;;;1.57;;
12437;SDS011;6283;51.330;12.374;2023-04-03T03:04:18;4.20;;;1.40;;
12437;SDS011;6283;51.330;12.374;2023-04-03T03:06:44;4.63;;;1.00;;
12437;SDS011;6283;51.330;12.374;2023-04-03T03:09:11;3.90;;;1.20;;
12437;SDS011;6283;51.330;12.374;2023-04-03T03:11:38;5.23;;;1.80;;
12437;SDS011;6283;51.330;12.374;2023-04-03T03:14:03;4.97;;;1.67;;
12437;SDS011;6283;51.330;12.374;2023-04-03T03:16:29;3.53;;;1.20;;
12437;SDS011;6283;51.330;12.374;2023-04-03T03:18:55;5.30;;;1.30;;
12437;SDS011;6283;51.330;12.374;2023-04-03T03:21:20;1.53;;;1.07;;
12437;SDS011;6283;51.330;12.374;2023-04-03T03:23:46;2.87;;;1.07;;
12437;SDS011;6283;51.330;12.374;2023-04-03T03:26:12;3.30;;;1.17;;
12437;SDS011;6283;51.330;12.374;2023-04-03T03:28:38;1.80;;;1.13;;
12437;SDS011;6283;51.330;12.374;2023-04-03T03:31:04;3.13;;;1.60;;
12437;SDS011;6283;51.330;12.374;2023-04-03T03:33:31;3.77;;;1.00;;
12437;SDS011;6283;51.330;12.374;2023-04-03T03:35:57;4.97;;;1.50;;
12437;SDS011;6283;51.330;12.374;2023-04-03T03:38:22;1.80;;;0.97;;
12437;SDS011;6283;51.330;12.374;2023-04-03T03:40:49;1.13;;;0.97;;
12437;SDS011;6283;51.330;12.374;2023-04-03T03:43:16;3.27;;;1.20;;
12437;SDS011;6283;51.330;12.374;2023-04-03T03:45:43;1.10;;;1.00;;
12437;SDS011;6283;51.330;12.374;2023-04-03T03:48:09;5.80;;;1.40;;
12437;SDS011;6283;51.330;12.374;2023-04-03T03:50:35;4.93;;;1.70;;
12437;SDS011;6283;51.330;12.374;2023-04-03T03:53:00;3.70;;;1.30;;
12437;SDS011;6283;51.330;12.374;2023-04-03T03:55:26;2.83;;;1.10;;
12437;SDS011;6283;51.330;12.374;2023-04-03T03:57:51;5.37;;;1.37;;
12437;SDS011;6283;51.330;12.374;2023-04-03T04:00:17;2.17;;;1.30;;
12437;SDS011;6283;51.330;12.374;2023-04-03T04:02:43;7.60;;;2.13;;
12437;SDS011;6283;51.330;12.374;2023-04-03T04:05:09;2.47;;;1.20;;
12437;SDS011;6283;51.330;12.374;2023-04-03T04:07:34;3.00;;;1.40;;
12437;SDS011;6283;51.330;12.374;2023-04-03T04:10:00;4.13;;;1.40;;
12437;SDS011;6283;51.330;12.374;2023-04-03T04:12:26;3.47;;;1.30;;
12437;SDS011;6283;51.330;12.374;2023-04-03T04:14:51;3.13;;;1.40;;
12437;SDS011;6283;51.330;12.374;2023-04-03T04:17:17;2.00;;;0.90;;
12437;SDS011;6283;51.330;12.374;2023-04-03T04:19:42;1.63;;;1.10;;
12437;SDS011;6283;51.330;12.374;2023-04-03T04:22:08;2.83;;;1.40;;
12437;SDS011;6283;51.330;12.374;2023-04-03T04:24:34;4.00;;;1.27;;
12437;SDS011;6283;51.330;12.374;2023-04-03T04:27:00;3.47;;;1.50;;
12437;SDS011;6283;51.330;12.374;2023-04-03T04:29:25;1.97;;;1.00;;
12437;SDS011;6283;51.330;12.374;2023-04-03T04:31:51;3.87;;;1.40;;
12437;SDS011;6283;51.330;12.374;2023-04-03T04:34:16;2.97;;;1.23;;
12437;SDS011;6283;51.330;12.374;2023-04-03T04:36:42;4.80;;;1.60;;
12437;SDS011;6283;51.330;12.374;2023-04-03T04:39:08;5.27;;;2.37;;
12437;SDS011;6283;51.330;12.374;2023-04-03T04:41:34;10.70;;;6.90;;
12437;SDS011;6283;51.330;12.374;2023-04-03T04:44:00;18.73;;;10.50;;
12437;SDS011;6283;51.330;12.374;2023-04-03T04:46:26;19.07;;;11.40;;
12437;SDS011;6283;51.330;12.374;2023-04-03T04:48:51;23.43;;;12.10;;
12437;SDS011;6283;51.330;12.374;2023-04-03T04:51:17;27.30;;;15.40;;
12437;SDS011;6283;51.330;12.374;2023-04-03T04:53:43;28.13;;;17.03;;
12437;SDS011;6283;51.330;12.374;2023-04-03T04:56:09;30.97;;;17.47;;
12437;SDS011;6283;51.330;12.374;2023-04-03T04:58:35;30.53;;;16.70;;
12437;SDS011;6283;51.330;12.374;2023-04-03T05:01:02;36.87;;;18.20;;
12437;SDS011;6283;51.330;12.374;2023-04-03T05:03:29;36.40;;;18.03;;
12437;SDS011;6283;51.330;12.374;2023-04-03T05:05:55;37.53;;;18.27;;
12437;SDS011;6283;51.330;12.374;2023-04-03T05:08:21;35.83;;;16.13;;
12437;SDS011;6283;51.330;12.374;2023-04-03T05:10:47;31.80;;;13.90;;
12437;SDS011;6283;51.330;12.374;2023-04-03T05:13:12;26.33;;;12.97;;
12437;SDS011;6283;51.330;12.374;2023-04-03T05:15:39;24.63;;;11.73;;
12437;SDS011;6283;51.330;12.374;2023-04-03T05:18:04;20.53;;;11.30;;
12437;SDS011;6283;51.330;12.374;2023-04-03T05:20:30;25.43;;;12.87;;
12437;SDS011;6283;51.330;12.374;2023-04-03T05:22:57;21.03;;;11.93;;
12437;SDS011;6283;51.330;12.374;2023-04-03T05:25:23;25.17;;;12.83;;
12437;SDS011;6283;51.330;12.374;2023-04-03T05:27:49;18.93;;;11.77;;
12437;SDS011;6283;51.330;12.374;2023-04-03T05:30:15;24.23;;;13.97;;
12437;SDS011;6283;51.330;12.374;2023-04-03T05:32:41;21.00;;;12.13;;
12437;SDS011;6283;51.330;12.374;2023-04-03T05:35:07;23.17;;;12.83;;
12437;SDS011;6283;51.330;12.374;2023-04-03T05:37:33;22.80;;;12.07;;
12437;SDS011;6283;51.330;12.374;2023-04-03T05:39:59;14.47;;;9.27;;
12437;SDS011;6283;51.330;12.374;2023-04-03T05:42:25;15.13;;;8.17;;
12437;SDS011;6283;51.330;12.374;2023-04-03T05:44:51;15.00;;;8.20;;
12437;SDS011;6283;51.330;12.374;2023-04-03T05:47:17;15.63;;;9.10;;
12437;SDS011;6283;51.330;12.374;2023-04-03T05:49:43;17.23;;;9.20;;
12437;SDS011;6283;51.330;12.374;2023-04-03T05:52:25;12.23;;;7.90;;
12437;SDS011;6283;51.330;12.374;2023-04-03T05:54:53;12.60;;;6.90;;
12437;SDS011;6283;51.330;12.374;2023-04-03T05:57:18;11.67;;;6.57;;
12437;SDS011;6283;51.330;12.374;2023-04-03T05:59:44;11.30;;;6.50;;
12437;SDS011;6283;51.330;12.374;2023-04-03T06:02:15;10.90;;;6.20;;
12437;SDS011;6283;51.330;12.374;2023-04-03T06:04:43;8.17;;;5.30;;
12437;SDS011;6283;51.330;12.374;2023-04-03T06:07:13;8.00;;;5.10;;
12437;SDS011;6283;51.330;12.374;2023-04-03T06:09:40;10.43;;;6.83;;
12437;SDS011;6283;51.330;12.374;2023-04-03T06:12:07;12.10;;;6.50;;
12437;SDS011;6283;51.330;12.374;2023-04-03T06:14:33;8.60;;;5.33;;
12437;SDS011;6283;51.330;12.374;2023-04-03T06:16:59;9.90;;;5.23;;
12437;SDS011;6283;51.330;12.374;2023-04-03T06:19:24;8.83;;;5.37;;
12437;SDS011;6283;51.330;12.374;2023-04-03T06:21:50;8.63;;;4.90;;
12437;SDS011;6283;51.330;12.374;2023-04-03T06:24:17;9.40;;;4.83;;
12437;SDS011;6283;51.330;12.374;2023-04-03T06:26:44;10.17;;;6.07;;
12437;SDS011;6283;51.330;12.374;2023-04-03T06:29:10;11.57;;;5.87;;
12437;SDS011;6283;51.330;12.374;2023-04-03T06:31:36;8.47;;;4.67;;
12437;SDS011;6283;51.330;12.374;2023-04-03T06:34:02;6.60;;;3.87;;
12437;SDS011;6283;51.330;12.374;2023-04-03T06:36:28;6.63;;;3.97;;
12437;SDS011;6283;51.330;12.374;2023-04-03T06:38:54;5.70;;;3.43;;
12437;SDS011;6283;51.330;12.374;2023-04-03T06:41:20;7.37;;;3.63;;
12437;SDS011;6283;51.330;12.374;2023-04-03T06:43:46;6.43;;;2.80;;
12437;SDS011;6283;51.330;12.374;2023-04-03T06:46:14;5.77;;;2.00;;
12437;SDS011;6283;51.330;12.374;2023-04-03T06:48:41;5.93;;;1.90;;
12437;SDS011;6283;51.330;12.374;2023-04-03T06:51:11;4.80;;;1.80;;
12437;SDS011;6283;51.330;12.374;2023-04-03T06:53:47;3.33;;;2.03;;
12437;SDS011;6283;51.330;12.374;2023-04-03T06:56:14;6.50;;;1.80;;
12437;SDS011;6283;51.330;12.374;2023-04-03T06:58:40;4.37;;;2.33;;
12437;SDS011;6283;51.330;12.374;2023-04-03T07:01:06;3.63;;;1.60;;
12437;SDS011;6283;51.330;12.374;2023-04-03T07:03:33;4.00;;;1.60;;
12437;SDS011;6283;51.330;12.374;2023-04-03T07:05:58;3.13;;;1.30;;
12437;SDS011;6283;51.330;12.374;2023-04-03T07:08:24;3.13;;;1.27;;
12437;SDS011;6283;51.330;12.374;2023-04-03T07:10:51;7.03;;;3.00;;
12437;SDS011;6283;51.330;12.374;2023-04-03T07:13:16;4.63;;;1.40;;
12437;SDS011;6283;51.330;12.374;2023-04-03T07:15:42;3.13;;;1.20;;
12437;SDS011;6283;51.330;12.374;2023-04-03T07:18:08;2.83;;;1.03;;
12437;SDS011;6283;51.330;12.374;2023-04-03T07:20:33;2.03;;;1.00;;
12437;SDS011;6283;51.330;12.374;2023-04-03T07:22:59;3.43;;;1.40;;
12437;SDS011;6283;51.330;12.374;2023-04-03T07:25:26;2.00;;;1.27;;
12437;SDS011;6283;51.330;12.374;2023-04-03T07:27:53;5.87;;;1.50;;
12437;SDS011;6283;51.330;12.374;2023-04-03T07:30:22;2.20;;;1.10;;
12437;SDS011;6283;51.330;12.374;2023-04-03T07:32:48;2.00;;;0.97;;
12437;SDS011;6283;51.330;12.374;2023-04-03T07:35:14;1.17;;;0.90;;
12437;SDS011;6283;51.330;12.374;2023-04-03T07:37:40;2.50;;;0.80;;
12437;SDS011;6283;51.330;12.374;2023-04-03T07:40:06;3.80;;;0.83;;
12437;SDS011;6283;51.330;12.374;2023-04-03T07:42:32;5.17;;;1.07;;
12437;SDS011;6283;51.330;12.374;2023-04-03T07:44:57;3.80;;;1.00;;
12437;SDS011;6283;51.330;12.374;2023-04-03T07:47:23;3.90;;;1.10;;
12437;SDS011;6283;51.330;12.374;2023-04-03T07:49:49;5.30;;;0.83;;
12437;SDS011;6283;51.330;12.374;2023-04-03T07:52:14;2.70;;;0.83;;
12437;SDS011;6283;51.330;12.374;2023-04-03T07:54:41;3.87;;;1.27;;
12437;SDS011;6283;51.330;12.374;2023-04-03T07:57:09;3.67;;;1.53;;
12437;SDS011;6283;51.330;12.374;2023-04-03T07:59:35;4.07;;;1.30;;
12437;SDS011;6283;51.330;12.374;2023-04-03T08:02:01;1.80;;;1.10;;
12437;SDS011;6283;51.330;12.374;2023-04-03T08:04:26;4.37;;;1.30;;
12437;SDS011;6283;51.330;12.374;2023-04-03T08:06:52;2.63;;;1.43;;
12437;SDS011;6283;51.330;12.374;2023-04-03T08:09:18;2.73;;;1.23;;
12437;SDS011;6283;51.330;12.374;2023-04-03T08:11:44;3.13;;;1.00;;
12437;SDS011;6283;51.330;12.374;2023-04-03T08:14:11;4.33;;;1.50;;
12437;SDS011;6283;51.330;12.374;2023-04-03T08:16:41;2.83;;;1.10;;
12437;SDS011;6283;51.330;12.374;2023-04-03T08:19:10;2.07;;;1.63;;
12437;SDS011;6283;51.330;12.374;2023-04-03T08:21:38;2.20;;;1.03;;
12437;SDS011;6283;51.330;12.374;2023-04-03T08:24:06;3.07;;;1.00;;
12437;SDS011;6283;51.330;12.374;2023-04-03T08:26:32;2.97;;;1.00;;
12437;SDS011;6283;51.330;12.374;2023-04-03T08:28:58;2.13;;;1.03;;
12437;SDS011;6283;51.330;12.374;2023-04-03T08:31:23;2.70;;;1.40;;
12437;SDS011;6283;51.330;12.374;2023-04-03T08:33:49;4.13;;;1.93;;
12437;SDS011;6283;51.330;12.374;2023-04-03T08:36:19;4.80;;;1.50;;
12437;SDS011;6283;51.330;12.374;2023-04-03T08:38:47;3.60;;;1.73;;
12437;SDS011;6283;51.330;12.374;2023-04-03T08:46:39;2.90;;;2.10;;
12437;SDS011;6283;51.330;12.374;2023-04-03T08:49:31;3.53;;;1.67;;
12437;SDS011;6283;51.330;12.374;2023-04-03T08:52:02;3.27;;;1.77;;
12437;SDS011;6283;51.330;12.374;2023-04-03T08:54:34;3.43;;;0.97;;
12437;SDS011;6283;51.330;12.374;2023-04-03T08:57:06;2.13;;;1.30;;
12437;SDS011;6283;51.330;12.374;2023-04-03T08:59:35;3.37;;;1.07;;
12437;SDS011;6283;51.330;12.374;2023-04-03T09:02:04;3.27;;;1.20;;
12437;SDS011;6283;51.330;12.374;2023-04-03T09:04:58;2.53;;;1.10;;
12437;SDS011;6283;51.330;12.374;2023-04-03T09:07:36;2.33;;;0.90;;
12437;SDS011;6283;51.330;12.374;2023-04-03T09:10:09;3.23;;;1.30;;
12437;SDS011;6283;51.330;12.374;2023-04-03T09:12:38;3.30;;;1.20;;
12437;SDS011;6283;51.330;12.374;2023-04-03T09:20:13;2.80;;;1.20;;
12437;SDS011;6283;51.330;12.374;2023-04-03T09:22:49;4.87;;;1.07;;
12437;SDS011;6283;51.330;12.374;2023-04-03T09:27:46;3.97;;;1.07;;
12437;SDS011;6283;51.330;12.374;2023-04-03T09:30:16;2.40;;;0.90;;
12437;SDS011;6283;51.330;12.374;2023-04-03T09:32:47;2.50;;;1.20;;
12437;SDS011;6283;51.330;12.374;2023-04-03T09:35:16;4.33;;;1.20;;
12437;SDS011;6283;51.330;12.374;2023-04-03T09:37:48;7.23;;;1.70;;
12437;SDS011;6283;51.330;12.374;2023-04-03T09:42:52;2.27;;;1.23;;
12437;SDS011;6283;51.330;12.374;2023-04-03T09:45:26;1.60;;;1.00;;
12437;SDS011;6283;51.330;12.374;2023-04-03T09:48:06;4.23;;;1.10;;
12437;SDS011;6283;51.330;12.374;2023-04-03T09:50:32;1.13;;;0.93;;
12437;SDS011;6283;51.330;12.374;2023-04-03T09:52:59;2.90;;;0.77;;
12437;SDS011;6283;51.330;12.374;2023-04-03T09:55:31;4.77;;;0.90;;
12437;SDS011;6283;51.330;12.374;2023-04-03T09:57:59;3.03;;;1.27;;
12437;SDS011;6283;51.330;12.374;2023-04-03T10:03:00;3.43;;;1.40;;
12437;SDS011;6283;51.330;12.374;2023-04-03T10:05:38;3.67;;;1.37;;
12437;SDS011;6283;51.330;12.374;2023-04-03T10:08:10;1.50;;;0.90;;
12437;SDS011;6283;51.330;12.374;2023-04-03T10:10:48;1.13;;;0.70;;
12437;SDS011;6283;51.330;12.374;2023-04-03T10:13:31;2.97;;;1.00;;
12437;SDS011;6283;51.330;12.374;2023-04-03T10:16:04;2.40;;;1.00;;
12437;SDS011;6283;51.330;12.374;2023-04-03T10:18:39;4.83;;;1.10;;
12437;SDS011;6283;51.330;12.374;2023-04-03T10:21:30;2.97;;;1.30;;
12437;SDS011;6283;51.330;12.374;2023-04-03T10:29:49;1.20;;;1.10;;
12437;SDS011;6283;51.330;12.374;2023-04-03T10:35:34;3.33;;;1.00;;
12437;SDS011;6283;51.330;12.374;2023-04-03T10:41:23;3.33;;;1.47;;
12437;SDS011;6283;51.330;12.374;2023-04-03T10:43:54;2.17;;;1.33;;
12437;SDS011;6283;51.330;12.374;2023-04-03T10:46:36;1.80;;;1.40;;
12437;SDS011;6283;51.330;12.374;2023-04-03T10:49:22;1.90;;;1.20;;
12437;SDS011;6283;51.330;12.374;2023-04-03T10:52:09;2.20;;;1.50;;
12437;SDS011;6283;51.330;12.374;2023-04-03T10:57:39;4.70;;;1.50;;
12437;SDS011;6283;51.330;12.374;2023-04-03T11:00:51;3.73;;;1.80;;
12437;SDS011;6283;51.330;12.374;2023-04-03T11:03:14;3.97;;;1.90;;
12437;SDS011;6283;51.330;12.374;2023-04-03T11:05:43;2.13;;;1.37;;
12437;SDS011;6283;51.330;12.374;2023-04-03T11:10:53;3.50;;;1.20;;
12437;SDS011;6283;51.330;12.374;2023-04-03T11:13:28;3.00;;;1.23;;
12437;SDS011;6283;51.330;12.374;2023-04-03T11:16:02;1.70;;;1.10;;
12437;SDS011;6283;51.330;12.374;2023-04-03T11:18:41;3.43;;;1.53;;
12437;SDS011;6283;51.330;12.374;2023-04-03T11:21:14;2.97;;;1.03;;
12437;SDS011;6283;51.330;12.374;2023-04-03T11:23:48;4.60;;;1.50;;
12437;SDS011;6283;51.330;12.374;2023-04-03T11:26:18;1.90;;;1.30;;
12437;SDS011;6283;51.330;12.374;2023-04-03T11:28:51;1.87;;;1.27;;
12437;SDS011;6283;51.330;12.374;2023-04-03T11:36:58;3.00;;;1.77;;
12437;SDS011;6283;51.330;12.374;2023-04-03T11:39:28;1.97;;;1.03;;
12437;SDS011;6283;51.330;12.374;2023-04-03T11:42:16;3.80;;;1.40;;
12437;SDS011;6283;51.330;12.374;2023-04-03T11:44:49;2.87;;;1.50;;
12437;SDS011;6283;51.330;12.374;2023-04-03T11:55:42;4.40;;;1.17;;
12437;SDS011;6283;51.330;12.374;2023-04-03T11:58:19;7.93;;;2.27;;
12437;SDS011;6283;51.330;12.374;2023-04-03T12:00:55;4.00;;;2.00;;
12437;SDS011;6283;51.330;12.374;2023-04-03T12:16:05;1.40;;;1.20;;
12437;SDS011;6283;51.330;12.374;2023-04-03T12:21:21;2.67;;;1.43;;
12437;SDS011;6283;51.330;12.374;2023-04-03T12:24:31;2.73;;;1.27;;
12437;SDS011;6283;51.330;12.374;2023-04-03T12:26:48;1.87;;;1.20;;
12437;SDS011;6283;51.330;12.374;2023-04-03T12:34:46;3.43;;;1.47;;
12437;SDS011;6283;51.330;12.374;2023-04-03T12:39:36;2.20;;;1.33;;
12437;SDS011;6283;51.330;12.374;2023-04-03T12:47:44;1.97;;;1.37;;
12437;SDS011;6283;51.330;12.374;2023-04-03T12:53:21;2.63;;;1.33;;
12437;SDS011;6283;51.330;12.374;2023-04-03T12:55:54;3.27;;;1.20;;
12437;SDS011;6283;51.330;12.374;2023-04-03T12:58:25;5.53;;;1.33;;
12437;SDS011;6283;51.330;12.374;2023-04-03T13:03:44;4.07;;;2.03;;
12437;SDS011;6283;51.330;12.374;2023-04-03T13:11:48;3.93;;;1.60;;
12437;SDS011;6283;51.330;12.374;2023-04-03T13:14:18;1.80;;;1.27;;
12437;SDS011;6283;51.330;12.374;2023-04-03T13:16:52;2.60;;;1.30;;
12437;SDS011;6283;51.330;12.374;2023-04-03T13:19:28;2.77;;;1.43;;
12437;SDS011;6283;51.330;12.374;2023-04-03T13:21:58;1.60;;;1.20;;
12437;SDS011;6283;51.330;12.374;2023-04-03T13:24:33;4.20;;;1.33;;
12437;SDS011;6283;51.330;12.374;2023-04-03T13:27:01;2.57;;;1.40;;
12437;SDS011;6283;51.330;12.374;2023-04-03T13:29:29;1.80;;;1.30;;
12437;SDS011;6283;51.330;12.374;2023-04-03T13:31:58;2.90;;;1.33;;
12437;SDS011;6283;51.330;12.374;2023-04-03T13:34:26;2.37;;;1.17;;
12437;SDS011;6283;51.330;12.374;2023-04-03T13:37:19;1.83;;;1.10;;
12437;SDS011;6283;51.330;12.374;2023-04-03T13:42:30;2.83;;;1.10;;
12437;SDS011;6283;51.330;12.374;2023-04-03T13:47:45;9.53;;;1.80;;
12437;SDS011;6283;51.330;12.374;2023-04-03T13:52:48;1.80;;;1.10;;
12437;SDS011;6283;51.330;12.374;2023-04-03T13:55:24;4.03;;;1.37;;
12437;SDS011;6283;51.330;12.374;2023-04-03T14:00:35;5.63;;;1.60;;
12437;SDS011;6283;51.330;12.374;2023-04-03T14:03:02;2.93;;;1.43;;
12437;SDS011;6283;51.330;12.374;2023-04-03T14:05:28;4.37;;;1.30;;
12437;SDS011;6283;51.330;12.374;2023-04-03T14:07:54;2.53;;;1.07;;
12437;SDS011;6283;51.330;12.374;2023-04-03T14:10:20;2.83;;;1.27;;
12437;SDS011;6283;51.330;12.374;2023-04-03T14:12:46;2.00;;;1.10;;
12437;SDS011;6283;51.330;12.374;2023-04-03T14:17:48;2.90;;;1.30;;
12437;SDS011;6283;51.330;12.374;2023-04-03T14:20:17;3.20;;;1.30;;
12437;SDS011;6283;51.330;12.374;2023-04-03T14:22:45;2.53;;;1.40;;
12437;SDS011;6283;51.330;12.374;2023-04-03T14:25:11;4.23;;;1.17;;
12437;SDS011;6283;51.330;12.374;2023-04-03T14:27:38;3.67;;;1.40;;
12437;SDS011;6283;51.330;12.374;2023-04-03T14:30:08;3.23;;;1.57;;
12437;SDS011;6283;51.330;12.374;2023-04-03T14:32:40;3.00;;;1.30;;
12437;SDS011;6283;51.330;12.374;2023-04-03T14:35:06;3.43;;;1.60;;
12437;SDS011;6283;51.330;12.374;2023-04-03T14:37:32;4.53;;;1.53;;
12437;SDS011;6283;51.330;12.374;2023-04-03T14:39:59;4.00;;;1.17;;
12437;SDS011;6283;51.330;12.374;2023-04-03T14:42:28;2.13;;;1.57;;
12437;SDS011;6283;51.330;12.374;2023-04-03T14:44:56;2.40;;;1.30;;
12437;SDS011;6283;51.330;12.374;2023-04-03T14:47:24;2.67;;;1.30;;
12437;SDS011;6283;51.330;12.374;2023-04-03T14:49:52;2.17;;;1.60;;
12437;SDS011;6283;51.330;12.374;2023-04-03T14:54:46;4.73;;;1.70;;
12437;SDS011;6283;51.330;12.374;2023-04-03T14:57:13;3.23;;;1.20;;
12437;SDS011;6283;51.330;12.374;2023-04-03T14:59:40;3.27;;;1.60;;
12437;SDS011;6283;51.330;12.374;2023-04-03T15:02:22;3.17;;;1.30;;
12437;SDS011;6283;51.330;12.374;2023-04-03T15:04:51;3.43;;;1.57;;
12437;SDS011;6283;51.330;12.374;2023-04-03T15:07:17;5.30;;;1.50;;
12437;SDS011;6283;51.330;12.374;2023-04-03T15:09:43;3.53;;;1.33;;
12437;SDS011;6283;51.330;12.374;2023-04-03T15:12:12;2.47;;;1.13;;
12437;SDS011;6283;51.330;12.374;2023-04-03T15:14:37;2.00;;;1.50;;
12437;SDS011;6283;51.330;12.374;2023-04-03T15:17:08;1.97;;;1.63;;
12437;SDS011;6283;51.330;12.374;2023-04-03T15:19:42;1.73;;;1.10;;
12437;SDS011;6283;51.330;12.374;2023-04-03T15:22:12;2.67;;;1.40;;
12437;SDS011;6283;51.330;12.374;2023-04-03T15:24:40;1.50;;;1.00;;
12437;SDS011;6283;51.330;12.374;2023-04-03T15:27:06;2.90;;;1.43;;
12437;SDS011;6283;51.330;12.374;2023-04-03T15:29:32;2.73;;;1.20;;
12437;SDS011;6283;51.330;12.374;2023-04-03T15:31:57;2.00;;;1.30;;
12437;SDS011;6283;51.330;12.374;2023-04-03T15:34:23;1.10;;;1.10;;
12437;SDS011;6283;51.330;12.374;2023-04-03T15:36:49;1.13;;;1.07;;
12437;SDS011;6283;51.330;12.374;2023-04-03T15:39:17;0.93;;;0.87;;
12437;SDS011;6283;51.330;12.374;2023-04-03T15:41:43;1.30;;;1.10;;
12437;SDS011;6283;51.330;12.374;2023-04-03T15:44:10;2.20;;;1.20;;
12437;SDS011;6283;51.330;12.374;2023-04-03T15:46:37;1.27;;;1.10;;
12437;SDS011;6283;51.330;12.374;2023-04-03T15:49:03;2.90;;;1.30;;
12437;SDS011;6283;51.330;12.374;2023-04-03T15:51:29;2.00;;;1.33;;
12437;SDS011;6283;51.330;12.374;2023-04-03T15:53:55;2.10;;;1.20;;
12437;SDS011;6283;51.330;12.374;2023-04-03T15:56:21;1.23;;;1.20;;
12437;SDS011;6283;51.330;12.374;2023-04-03T15:58:47;3.07;;;1.30;;
12437;SDS011;6283;51.330;12.374;2023-04-03T16:01:12;2.00;;;1.43;;
12437;SDS011;6283;51.330;12.374;2023-04-03T16:03:39;2.10;;;1.67;;
12437;SDS011;6283;51.330;12.374;2023-04-03T16:06:10;1.10;;;1.00;;
12437;SDS011;6283;51.330;12.374;2023-04-03T16:08:37;2.50;;;1.10;;
12437;SDS011;6283;51.330;12.374;2023-04-03T16:11:03;2.13;;;1.30;;
12437;SDS011;6283;51.330;12.374;2023-04-03T16:13:29;1.50;;;1.30;;
12437;SDS011;6283;51.330;12.374;2023-04-03T16:15:55;1.67;;;1.30;;
12437;SDS011;6283;51.330;12.374;2023-04-03T16:18:21;1.00;;;1.00;;
12437;SDS011;6283;51.330;12.374;2023-04-03T16:20:47;1.67;;;1.20;;
12437;SDS011;6283;51.330;12.374;2023-04-03T16:23:13;2.57;;;1.10;;
12437;SDS011;6283;51.330;12.374;2023-04-03T16:25:39;1.33;;;1.20;;
12437;SDS011;6283;51.330;12.374;2023-04-03T16:28:05;1.73;;;1.10;;
12437;SDS011;6283;51.330;12.374;2023-04-03T16:30:31;1.97;;;1.20;;
12437;SDS011;6283;51.330;12.374;2023-04-03T16:32:58;1.90;;;1.40;;
12437;SDS011;6283;51.330;12.374;2023-04-03T16:35:23;3.60;;;1.40;;
12437;SDS011;6283;51.330;12.374;2023-04-03T16:37:49;4.13;;;1.60;;
12437;SDS011;6283;51.330;12.374;2023-04-03T16:40:14;2.30;;;1.20;;